createdAt,value
2018-08-24T00:01:55.932Z,20.90
2018-08-24T00:04:24.931Z,20.90
2018-08-24T00:06:54.365Z,20.90
2018-08-24T00:09:25.170Z,20.90
2018-08-24T00:11:54.522Z,20.90
2018-08-24T00:14:23.521Z,20.90
2018-08-24T00:16:52.606Z,20.90
2018-08-24T00:19:21.633Z,20.90
2018-08-24T00:21:50.646Z,20.80
2018-08-24T00:24:19.711Z,20.80
2018-08-24T00:26:48.693Z,20.80
2018-08-24T00:29:17.637Z,20.70
2018-08-24T00:31:46.626Z,20.70
2018-08-24T00:34:15.881Z,20.60
2018-08-24T00:36:44.910Z,20.60
2018-08-24T00:39:13.927Z,20.60
2018-08-24T00:41:42.967Z,20.60
2018-08-24T00:44:11.953Z,20.60
2018-08-24T00:46:41.052Z,20.70
2018-08-24T00:49:10.106Z,20.60
2018-08-24T00:51:39.061Z,20.60
2018-08-24T00:54:08.027Z,20.60
2018-08-24T00:56:37.061Z,20.70
2018-08-24T00:59:06.053Z,20.70
2018-08-24T01:01:35.052Z,20.70
2018-08-24T01:04:04.102Z,20.70
2018-08-24T01:06:33.372Z,20.70
2018-08-24T01:09:02.295Z,20.70
2018-08-24T01:11:36.693Z,20.70
2018-08-24T01:14:05.617Z,20.80
2018-08-24T01:16:40.047Z,20.90
2018-08-24T01:19:08.984Z,20.90
2018-08-24T01:21:37.924Z,20.90
2018-08-24T01:24:07.374Z,21.00
2018-08-24T01:26:36.446Z,21.00
2018-08-24T01:29:05.786Z,21.00
2018-08-24T01:31:34.762Z,21.00
2018-08-24T01:34:03.712Z,20.90
2018-08-24T01:36:32.657Z,20.90
2018-08-24T01:39:01.608Z,20.80
2018-08-24T01:41:30.764Z,20.70
2018-08-24T01:43:59.766Z,20.70
2018-08-24T01:46:28.730Z,20.70
2018-08-24T01:48:57.704Z,20.60
2018-08-24T01:51:26.684Z,20.60
2018-08-24T01:53:55.621Z,20.50
2018-08-24T01:56:24.620Z,20.50
2018-08-24T01:58:53.600Z,20.50
2018-08-24T02:01:22.782Z,20.50
2018-08-24T02:03:51.755Z,20.40
2018-08-24T02:06:20.703Z,20.40
2018-08-24T02:08:49.672Z,20.40
2018-08-24T02:11:24.231Z,20.40
2018-08-24T02:13:58.490Z,20.30
2018-08-24T02:16:31.739Z,20.30
2018-08-24T02:19:06.197Z,20.30
2018-08-24T02:21:40.615Z,20.30
2018-08-24T02:24:10.428Z,20.30
2018-08-24T02:26:39.629Z,20.30
2018-08-24T02:29:08.851Z,20.20
2018-08-24T02:31:43.059Z,20.20
2018-08-24T02:34:12.265Z,20.20
2018-08-24T02:36:41.611Z,20.20
2018-08-24T02:39:13.380Z,20.20
2018-08-24T02:41:42.928Z,20.10
2018-08-24T02:44:12.331Z,20.10
2018-08-24T02:46:42.447Z,20.00
2018-08-24T02:49:11.725Z,20.00
2018-08-24T02:51:40.723Z,20.00
2018-08-24T02:54:09.799Z,20.00
2018-08-24T02:56:38.754Z,20.00
2018-08-24T02:59:07.769Z,20.00
2018-08-24T03:01:36.725Z,20.00
2018-08-24T03:04:05.993Z,20.00
2018-08-24T03:06:35.023Z,20.00
2018-08-24T03:09:07.186Z,20.00
2018-08-24T03:11:36.167Z,20.00
2018-08-24T03:14:05.231Z,20.10
2018-08-24T03:16:34.243Z,20.20
2018-08-24T03:19:03.542Z,20.20
2018-08-24T03:21:32.516Z,20.30
2018-08-24T03:24:01.554Z,20.30
2018-08-24T03:26:30.578Z,20.30
2018-08-24T03:28:59.602Z,20.20
2018-08-24T03:31:28.590Z,20.20
2018-08-24T03:33:57.567Z,20.20
2018-08-24T03:36:26.893Z,20.30
2018-08-24T03:38:55.848Z,20.30
2018-08-24T03:41:24.877Z,20.40
2018-08-24T03:43:53.858Z,20.40
2018-08-24T03:46:22.854Z,20.40
2018-08-24T03:48:51.810Z,20.40
2018-08-24T03:51:20.839Z,20.40
2018-08-24T03:53:49.911Z,20.40
2018-08-24T03:56:18.828Z,20.40
2018-08-24T03:58:47.792Z,20.30
2018-08-24T04:01:16.786Z,20.30
2018-08-24T04:03:45.781Z,20.30
2018-08-24T04:06:14.979Z,20.20
2018-08-24T04:08:44.072Z,20.20
2018-08-24T04:11:13.093Z,20.10
2018-08-24T04:13:42.122Z,20.10
2018-08-24T04:16:11.089Z,20.10
2018-08-24T04:18:40.388Z,20.10
2018-08-24T04:21:09.383Z,20.10
2018-08-24T04:23:38.448Z,20.10
2018-08-24T04:26:07.644Z,20.00
2018-08-24T04:28:36.749Z,20.00
2018-08-24T04:31:05.991Z,19.90
2018-08-24T04:33:34.998Z,19.90
2018-08-24T04:36:04.143Z,19.90
2018-08-24T04:38:33.216Z,19.90
2018-08-24T04:41:02.224Z,19.90
2018-08-24T04:43:31.299Z,19.90
2018-08-24T04:46:00.327Z,20.00
2018-08-24T04:48:29.278Z,20.00
2018-08-24T04:50:58.443Z,20.00
2018-08-24T04:53:27.502Z,20.10
2018-08-24T04:55:56.537Z,20.10
2018-08-24T04:58:25.708Z,20.20
2018-08-24T05:00:54.863Z,20.20
2018-08-24T05:03:23.923Z,20.30
2018-08-24T05:05:53.013Z,20.40
2018-08-24T05:08:22.049Z,20.40
2018-08-24T05:10:51.157Z,20.50
2018-08-24T05:13:20.115Z,20.50
2018-08-24T05:15:49.081Z,20.50
2018-08-24T05:18:18.185Z,20.50
2018-08-24T05:20:47.233Z,20.50
2018-08-24T05:23:16.265Z,20.70
2018-08-24T05:25:45.354Z,20.70
2018-08-24T05:28:14.914Z,20.80
2018-08-24T05:30:43.968Z,20.90
2018-08-24T05:33:13.048Z,20.90
2018-08-24T05:35:42.530Z,21.00
2018-08-24T05:38:11.692Z,21.10
2018-08-24T05:40:40.948Z,21.10
2018-08-24T05:43:10.034Z,21.10
2018-08-24T05:45:39.038Z,21.10
2018-08-24T05:48:08.196Z,21.00
2018-08-24T05:50:37.233Z,21.00
2018-08-24T05:53:06.970Z,21.00
2018-08-24T05:55:36.474Z,21.00
2018-08-24T05:58:05.600Z,20.90
2018-08-24T06:00:41.132Z,21.00
2018-08-24T06:03:10.391Z,21.00
2018-08-24T06:05:44.925Z,21.10
2018-08-24T06:08:14.117Z,21.20
2018-08-24T06:10:43.161Z,21.30
2018-08-24T06:13:16.561Z,21.40
2018-08-24T06:15:47.576Z,21.60
2018-08-24T06:18:16.743Z,21.70
2018-08-24T06:20:45.819Z,21.80
2018-08-24T06:23:14.985Z,21.90
2018-08-24T06:25:44.021Z,21.90
2018-08-24T06:28:13.004Z,21.90
2018-08-24T06:30:42.102Z,22.00
2018-08-24T06:33:11.204Z,22.20
2018-08-24T06:35:40.363Z,22.30
2018-08-24T06:38:09.508Z,22.30
2018-08-24T06:40:38.498Z,22.30
2018-08-24T06:43:07.466Z,22.40
2018-08-24T06:45:36.458Z,22.30
2018-08-24T06:48:05.520Z,22.30
2018-08-24T06:50:34.671Z,22.40
2018-08-24T06:53:03.986Z,22.50
2018-08-24T06:55:33.272Z,22.60
2018-08-24T06:58:02.362Z,22.60
2018-08-24T07:00:32.588Z,22.80
2018-08-24T07:03:02.508Z,23.00
2018-08-24T07:05:31.690Z,23.00
2018-08-24T07:08:00.804Z,23.10
2018-08-24T07:10:29.541Z,23.40
2018-08-24T07:12:58.660Z,23.50
2018-08-24T07:15:27.813Z,23.40
2018-08-24T07:18:01.457Z,23.30
2018-08-24T07:20:31.096Z,23.20
2018-08-24T07:23:00.170Z,23.40
2018-08-24T07:25:28.869Z,23.50
2018-08-24T07:27:57.638Z,23.60
2018-08-24T07:30:26.620Z,23.60
2018-08-24T07:32:55.589Z,23.50
2018-08-24T07:35:24.595Z,23.50
2018-08-24T07:37:53.281Z,23.60
2018-08-24T07:40:22.072Z,23.90
2018-08-24T07:42:50.792Z,24.30
2018-08-24T07:45:19.554Z,24.50
2018-08-24T07:47:48.400Z,24.50
2018-08-24T07:50:17.436Z,24.50
2018-08-24T07:52:46.265Z,24.60
2018-08-24T07:55:14.954Z,24.60
2018-08-24T07:57:43.716Z,24.60
2018-08-24T08:00:12.815Z,24.60
2018-08-24T08:02:45.294Z,24.70
2018-08-24T08:05:14.454Z,24.80
2018-08-24T08:07:43.592Z,25.10
2018-08-24T08:10:12.389Z,25.20
2018-08-24T08:12:41.322Z,25.10
2018-08-24T08:15:10.888Z,24.80
2018-08-24T08:17:40.719Z,24.60
2018-08-24T08:20:10.527Z,24.40
2018-08-24T08:22:39.303Z,24.50
2018-08-24T08:25:08.540Z,24.70
2018-08-24T08:27:37.395Z,24.80
2018-08-24T08:30:06.782Z,25.00
2018-08-24T08:32:35.526Z,25.10
2018-08-24T08:35:04.353Z,25.30
2018-08-24T08:37:33.571Z,25.10
2018-08-24T08:40:03.480Z,24.90
2018-08-24T08:42:32.666Z,24.80
2018-08-24T08:45:01.394Z,24.60
2018-08-24T08:47:30.113Z,24.40
2018-08-24T08:49:58.846Z,24.50
2018-08-24T08:52:27.733Z,24.60
2018-08-24T08:54:56.629Z,24.80
2018-08-24T08:57:25.336Z,25.10
2018-08-24T08:59:54.043Z,25.30
2018-08-24T09:02:22.719Z,25.60
2018-08-24T09:04:51.371Z,25.70
2018-08-24T09:07:20.043Z,25.90
2018-08-24T09:09:48.739Z,26.10
2018-08-24T09:12:17.672Z,26.30
2018-08-24T09:14:46.867Z,26.50
2018-08-24T09:17:20.935Z,26.70
2018-08-24T09:19:54.958Z,26.50
2018-08-24T09:22:29.053Z,26.40
2018-08-24T09:25:02.987Z,26.30
2018-08-24T09:27:35.403Z,26.30
2018-08-24T09:30:05.629Z,26.20
2018-08-24T09:32:34.516Z,26.10
2018-08-24T09:35:03.311Z,26.00
2018-08-24T09:37:35.100Z,26.10
2018-08-24T09:40:04.369Z,26.20
2018-08-24T09:42:33.061Z,26.30
2018-08-24T09:45:01.878Z,26.40
2018-08-24T09:47:36.345Z,26.50
2018-08-24T09:50:11.059Z,26.60
2018-08-24T09:52:39.886Z,26.80
2018-08-24T09:55:08.687Z,26.90
2018-08-24T09:57:37.489Z,26.80
2018-08-24T10:00:06.880Z,26.90
2018-08-24T10:02:40.951Z,27.30
2018-08-24T10:05:15.035Z,27.80
2018-08-24T10:07:49.242Z,28.10
2018-08-24T10:10:18.034Z,27.80
2018-08-24T10:12:46.798Z,27.60
2018-08-24T10:15:15.506Z,27.50
2018-08-24T10:17:44.178Z,27.50
2018-08-24T10:20:12.834Z,27.30
2018-08-24T10:22:41.552Z,26.90
2018-08-24T10:25:10.546Z,26.20
2018-08-24T10:27:39.358Z,24.80
2018-08-24T10:30:08.010Z,23.80
2018-08-24T10:32:36.856Z,23.30
2018-08-24T10:35:05.568Z,23.30
2018-08-24T10:37:34.336Z,23.00
2018-08-24T10:40:03.215Z,22.70
2018-08-24T10:42:31.868Z,22.50
2018-08-24T10:45:00.815Z,22.50
2018-08-24T10:47:29.622Z,22.70
2018-08-24T10:49:58.530Z,23.00
2018-08-24T10:52:27.226Z,23.00
2018-08-24T10:54:56.084Z,22.90
2018-08-24T10:57:24.999Z,22.90
2018-08-24T10:59:53.981Z,22.90
2018-08-24T11:02:22.818Z,22.90
2018-08-24T11:04:51.944Z,22.90
2018-08-24T11:07:20.759Z,22.90
2018-08-24T11:09:49.645Z,22.90
2018-08-24T11:12:18.313Z,22.90
2018-08-24T11:14:46.997Z,23.00
2018-08-24T11:17:15.663Z,23.20
2018-08-24T11:19:44.377Z,23.30
2018-08-24T11:22:13.059Z,23.70
2018-08-24T11:24:41.773Z,24.00
2018-08-24T11:27:10.434Z,24.00
2018-08-24T11:29:39.455Z,24.00
2018-08-24T11:32:08.182Z,23.90
2018-08-24T11:34:36.923Z,24.10
2018-08-24T11:37:05.618Z,24.40
2018-08-24T11:39:34.621Z,24.50
2018-08-24T11:42:03.337Z,24.70
2018-08-24T11:44:32.254Z,24.80
2018-08-24T11:47:01.030Z,25.10
2018-08-24T11:49:29.756Z,25.40
2018-08-24T11:51:58.646Z,25.90
2018-08-24T11:54:27.333Z,26.00
2018-08-24T11:56:56.104Z,26.10
2018-08-24T11:59:25.098Z,26.00
2018-08-24T12:01:54.062Z,26.00
2018-08-24T12:04:22.714Z,25.80
2018-08-24T12:06:51.626Z,25.80
2018-08-24T12:09:20.252Z,25.80
2018-08-24T12:11:49.070Z,25.70
2018-08-24T12:14:18.009Z,25.70
2018-08-24T12:16:47.054Z,25.70
2018-08-24T12:19:15.756Z,25.60
2018-08-24T12:21:44.571Z,25.50
2018-08-24T12:24:13.379Z,25.40
2018-08-24T12:26:42.306Z,25.70
2018-08-24T12:29:11.400Z,26.10
2018-08-24T12:31:40.636Z,26.10
2018-08-24T12:34:09.289Z,26.10
2018-08-24T12:36:38.184Z,25.90
2018-08-24T12:39:10.269Z,25.70
2018-08-24T12:41:39.039Z,25.50
2018-08-24T12:44:08.062Z,25.60
2018-08-24T12:46:36.913Z,25.90
2018-08-24T12:49:06.019Z,26.20
2018-08-24T12:51:34.911Z,26.30
2018-08-24T12:54:03.545Z,25.90
2018-08-24T12:56:32.341Z,25.60
2018-08-24T12:59:01.365Z,25.50
2018-08-24T13:01:30.022Z,25.30
2018-08-24T13:03:58.763Z,25.10
2018-08-24T13:06:27.771Z,24.60
2018-08-24T13:08:56.960Z,24.10
2018-08-24T13:11:25.803Z,23.50
2018-08-24T13:13:54.885Z,23.10
2018-08-24T13:16:23.585Z,22.80
2018-08-24T13:18:52.318Z,22.60
2018-08-24T13:21:21.354Z,22.60
2018-08-24T13:23:50.229Z,22.50
2018-08-24T13:26:18.934Z,22.40
2018-08-24T13:28:47.905Z,22.20
2018-08-24T13:31:16.861Z,22.00
2018-08-24T13:33:45.869Z,21.80
2018-08-24T13:36:14.897Z,21.60
2018-08-24T13:38:43.954Z,21.40
2018-08-24T13:41:13.032Z,21.20
2018-08-24T13:43:42.662Z,20.90
2018-08-24T13:46:15.903Z,20.60
2018-08-24T13:48:45.036Z,20.50
2018-08-24T13:51:14.298Z,20.50
2018-08-24T13:53:43.583Z,20.60
2018-08-24T13:56:13.086Z,20.70
2018-08-24T13:58:42.047Z,20.90
2018-08-24T14:01:11.965Z,21.00
2018-08-24T14:03:40.919Z,21.00
2018-08-24T14:06:09.895Z,21.10
2018-08-24T14:08:39.046Z,21.10
2018-08-24T14:11:08.093Z,21.20
2018-08-24T14:13:37.185Z,21.40
2018-08-24T14:16:06.909Z,21.40
2018-08-24T14:18:36.340Z,21.40
2018-08-24T14:21:05.663Z,21.50
2018-08-24T14:23:34.596Z,21.50
2018-08-24T14:26:03.961Z,21.50
2018-08-24T14:28:33.075Z,21.50
2018-08-24T14:31:02.433Z,21.40
2018-08-24T14:33:31.417Z,21.40
2018-08-24T14:36:00.440Z,21.40
2018-08-24T14:38:29.431Z,21.30
2018-08-24T14:40:58.478Z,21.30
2018-08-24T14:43:27.464Z,21.40
2018-08-24T14:45:56.460Z,21.50
2018-08-24T14:48:25.848Z,21.60
2018-08-24T14:50:54.809Z,21.70
2018-08-24T14:53:23.456Z,21.90
2018-08-24T14:55:52.375Z,22.00
2018-08-24T14:58:21.369Z,22.00
2018-08-24T15:00:50.079Z,22.00
2018-08-24T15:03:19.141Z,22.00
2018-08-24T15:05:48.502Z,22.10
2018-08-24T15:08:17.539Z,22.30
2018-08-24T15:10:46.514Z,22.30
2018-08-24T15:13:15.271Z,22.20
2018-08-24T15:15:44.341Z,22.30
2018-08-24T15:18:13.443Z,22.20
2018-08-24T15:20:42.287Z,22.10
2018-08-24T15:23:11.315Z,22.00
2018-08-24T15:25:40.186Z,22.00
2018-08-24T15:28:09.587Z,22.10
2018-08-24T15:30:38.541Z,22.30
2018-08-24T15:33:07.501Z,22.60
2018-08-24T15:35:36.595Z,22.70
2018-08-24T15:38:05.559Z,22.90
2018-08-24T15:40:34.571Z,22.80
2018-08-24T15:43:03.260Z,22.90
2018-08-24T15:45:32.470Z,22.80
2018-08-24T15:48:01.165Z,22.90
2018-08-24T15:50:29.933Z,23.10
2018-08-24T15:52:58.615Z,23.00
2018-08-24T15:55:27.395Z,22.80
2018-08-24T15:57:56.048Z,22.60
2018-08-24T16:00:25.041Z,22.50
2018-08-24T16:03:00.492Z,22.40
2018-08-24T16:05:29.438Z,22.40
2018-08-24T16:07:58.614Z,22.40
2018-08-24T16:10:27.549Z,22.40
2018-08-24T16:12:56.591Z,22.30
2018-08-24T16:15:25.583Z,22.20
2018-08-24T16:18:31.626Z,22.20
2018-08-24T16:21:00.585Z,22.20
2018-08-24T16:23:30.076Z,22.10
2018-08-24T16:25:59.037Z,22.00
2018-08-24T16:28:28.148Z,21.80
2018-08-24T16:30:57.173Z,21.60
2018-08-24T16:33:26.173Z,21.40
2018-08-24T16:35:55.149Z,21.30
2018-08-24T16:38:24.193Z,21.20
2018-08-24T16:40:53.420Z,21.10
2018-08-24T16:43:22.432Z,21.00
2018-08-24T16:45:51.538Z,20.90
2018-08-24T16:48:20.526Z,20.80
2018-08-24T16:50:49.869Z,20.80
2018-08-24T16:53:18.824Z,20.80
2018-08-24T16:55:48.004Z,20.80
2018-08-24T16:58:17.026Z,20.70
2018-08-24T17:00:46.622Z,20.70
2018-08-24T17:03:15.674Z,20.70
2018-08-24T17:05:44.802Z,20.60
2018-08-24T17:08:13.799Z,20.50
2018-08-24T17:10:42.852Z,20.40
2018-08-24T17:13:11.835Z,20.40
2018-08-24T17:15:40.864Z,20.40
2018-08-24T17:18:10.053Z,20.30
2018-08-24T17:20:39.436Z,20.20
2018-08-24T17:23:08.478Z,20.20
2018-08-24T17:25:37.656Z,20.00
2018-08-24T17:28:07.149Z,19.90
2018-08-24T17:30:36.213Z,19.90
2018-08-24T17:33:05.185Z,19.80
2018-08-24T17:35:34.347Z,19.70
2018-08-24T17:38:05.687Z,19.60
2018-08-24T17:40:34.675Z,19.50
2018-08-24T17:43:03.735Z,19.40
2018-08-24T17:45:32.753Z,19.30
2018-08-24T17:48:01.836Z,19.20
2018-08-24T17:50:31.127Z,19.10
2018-08-24T17:53:00.181Z,19.10
2018-08-24T17:55:29.173Z,19.10
2018-08-24T17:57:58.144Z,19.00
2018-08-24T18:00:27.102Z,18.90
2018-08-24T18:02:56.213Z,18.90
2018-08-24T18:05:25.292Z,18.90
2018-08-24T18:07:54.350Z,18.90
2018-08-24T18:10:23.303Z,18.90
2018-08-24T18:12:52.401Z,18.90
2018-08-24T18:15:21.743Z,18.90
2018-08-24T18:17:50.765Z,18.90
2018-08-24T18:20:19.889Z,18.90
2018-08-24T18:22:48.855Z,19.00
2018-08-24T18:25:17.872Z,19.00
2018-08-24T18:27:46.876Z,19.10
2018-08-24T18:30:15.926Z,19.10
2018-08-24T18:32:45.064Z,19.10
2018-08-24T18:35:14.159Z,19.10
2018-08-24T18:37:43.150Z,19.10
2018-08-24T18:40:12.132Z,19.10
2018-08-24T18:42:41.517Z,19.10
2018-08-24T18:45:10.787Z,19.20
2018-08-24T18:47:39.848Z,19.10
2018-08-24T18:50:08.976Z,19.20
2018-08-24T18:52:37.978Z,19.20
2018-08-24T18:55:07.466Z,19.20
2018-08-24T18:57:36.530Z,19.20
2018-08-24T19:00:05.525Z,19.20
2018-08-24T19:02:34.512Z,19.20
2018-08-24T19:05:03.976Z,19.20
2018-08-24T19:07:33.158Z,19.20
2018-08-24T19:10:02.213Z,19.20
2018-08-24T19:12:31.238Z,19.10
2018-08-24T19:15:00.314Z,19.10
2018-08-24T19:17:34.806Z,19.10
2018-08-24T19:20:09.477Z,19.10
2018-08-24T19:22:42.308Z,19.10
2018-08-24T19:25:11.387Z,19.10
2018-08-24T19:27:45.840Z,19.10
2018-08-24T19:30:20.269Z,19.10
2018-08-24T19:32:49.366Z,19.10
2018-08-24T19:35:18.429Z,19.10
2018-08-24T19:37:47.499Z,19.00
2018-08-24T19:40:21.799Z,19.00
2018-08-24T19:42:50.793Z,19.00
2018-08-24T19:45:20.031Z,19.00
2018-08-24T19:47:54.391Z,19.00
2018-08-24T19:50:23.333Z,18.90
2018-08-24T19:52:52.419Z,18.90
2018-08-24T19:55:21.774Z,18.90
2018-08-24T19:57:56.106Z,18.90
2018-08-24T20:00:25.129Z,18.90
2018-08-24T20:02:54.102Z,18.80
2018-08-24T20:05:23.127Z,18.80
2018-08-24T20:07:57.421Z,18.80
2018-08-24T20:10:26.623Z,18.80
2018-08-24T20:12:55.806Z,18.80
2018-08-24T20:15:30.199Z,18.80
2018-08-24T20:18:00.117Z,18.80
2018-08-24T20:20:29.445Z,18.70
2018-08-24T20:22:58.492Z,18.70
2018-08-24T20:25:27.505Z,18.70
2018-08-24T20:27:59.590Z,18.70
2018-08-24T20:30:28.883Z,18.70
2018-08-24T20:32:57.921Z,18.70
2018-08-24T20:35:27.055Z,18.60
2018-08-24T20:37:56.026Z,18.60
2018-08-24T20:40:25.005Z,18.60
2018-08-24T20:42:53.960Z,18.60
2018-08-24T20:45:22.962Z,18.50
2018-08-24T20:47:52.017Z,18.50
2018-08-24T20:50:21.022Z,18.50
2018-08-24T20:52:49.986Z,18.50
2018-08-24T20:55:19.045Z,18.40
2018-08-24T20:57:48.306Z,18.40
2018-08-24T21:00:17.246Z,18.40
2018-08-24T21:02:46.406Z,18.40
2018-08-24T21:05:15.398Z,18.40
2018-08-24T21:07:44.416Z,18.30
2018-08-24T21:10:13.574Z,18.30
2018-08-24T21:12:42.791Z,18.30
2018-08-24T21:15:11.863Z,18.30
2018-08-24T21:17:40.870Z,18.30
2018-08-24T21:20:09.929Z,18.30
2018-08-24T21:22:38.919Z,18.30
2018-08-24T21:25:08.291Z,18.30
2018-08-24T21:27:37.251Z,18.30
2018-08-24T21:30:06.267Z,18.30
2018-08-24T21:32:35.545Z,18.30
2018-08-24T21:35:05.008Z,18.30
2018-08-24T21:37:34.033Z,18.30
2018-08-24T21:40:03.349Z,18.30
2018-08-24T21:42:32.300Z,18.20
2018-08-24T21:45:01.402Z,18.30
2018-08-24T21:47:30.386Z,18.20
2018-08-24T21:49:59.348Z,18.20
2018-08-24T21:52:28.342Z,18.20
2018-08-24T21:54:57.321Z,18.20
2018-08-24T21:57:26.408Z,18.20
2018-08-24T21:59:55.373Z,18.10
2018-08-24T22:02:24.348Z,18.10
2018-08-24T22:04:53.328Z,18.00
2018-08-24T22:07:22.311Z,18.00
2018-08-24T22:09:51.259Z,17.90
2018-08-24T22:12:23.172Z,17.90
2018-08-24T22:14:52.158Z,17.80
2018-08-24T22:17:21.114Z,17.80
2018-08-24T22:19:50.072Z,17.80
2018-08-24T22:22:19.149Z,17.80
2018-08-24T22:24:48.143Z,17.70
2018-08-24T22:27:17.136Z,17.70
2018-08-24T22:29:46.091Z,17.70
2018-08-24T22:32:15.323Z,17.70
2018-08-24T22:34:44.333Z,17.60
2018-08-24T22:37:13.451Z,17.70
2018-08-24T22:39:42.561Z,17.60
2018-08-24T22:42:11.514Z,17.60
2018-08-24T22:44:40.507Z,17.60
2018-08-24T22:47:09.614Z,17.60
2018-08-24T22:49:38.827Z,17.60
2018-08-24T22:52:07.896Z,17.60
2018-08-24T22:54:36.973Z,17.60
2018-08-24T22:57:05.986Z,17.60
2018-08-24T22:59:35.272Z,17.60
2018-08-24T23:02:04.523Z,17.60
2018-08-24T23:04:40.077Z,17.60
2018-08-24T23:07:09.476Z,17.60
2018-08-24T23:09:38.424Z,17.70
2018-08-24T23:12:07.406Z,17.60
2018-08-24T23:14:36.418Z,17.60
2018-08-24T23:17:05.425Z,17.60
2018-08-24T23:19:34.437Z,17.50
2018-08-24T23:22:03.631Z,17.50
2018-08-24T23:24:32.614Z,17.40
2018-08-24T23:27:01.570Z,17.40
2018-08-24T23:29:30.684Z,17.40
2018-08-24T23:31:59.631Z,17.40
2018-08-24T23:34:28.788Z,17.30
2018-08-24T23:36:57.733Z,17.30
2018-08-24T23:39:26.769Z,17.40
2018-08-24T23:41:55.750Z,17.40
2018-08-24T23:44:24.743Z,17.40
2018-08-24T23:46:53.685Z,17.40
2018-08-24T23:49:22.660Z,17.40
2018-08-24T23:51:51.592Z,17.40
2018-08-24T23:54:20.555Z,17.30
2018-08-24T23:56:49.501Z,17.30
2018-08-24T23:59:18.541Z,17.30
